createdAt,value
2018-09-16T00:01:02.178Z,9.6
2018-09-16T00:02:08.848Z,9.6
2018-09-16T00:03:15.788Z,9.6
2018-09-16T00:04:22.993Z,9.7
2018-09-16T00:05:29.940Z,9.7
2018-09-16T00:06:37.150Z,9.7
2018-09-16T00:07:44.358Z,9.7
2018-09-16T00:08:51.587Z,9.6
2018-09-16T00:09:58.790Z,9.6
2018-09-16T00:11:06.008Z,9.6
2018-09-16T00:12:13.221Z,9.7
2018-09-16T00:13:20.430Z,9.6
2018-09-16T00:14:27.403Z,9.6
2018-09-16T00:15:34.646Z,9.6
2018-09-16T00:16:41.855Z,9.6
2018-09-16T00:17:49.074Z,9.6
2018-09-16T00:18:56.285Z,9.6
2018-09-16T00:20:03.493Z,9.5
2018-09-16T00:21:10.710Z,9.5
2018-09-16T00:22:17.918Z,9.4
2018-09-16T00:23:25.127Z,9.4
2018-09-16T00:24:32.336Z,9.3
2018-09-16T00:25:39.542Z,9.3
2018-09-16T00:26:46.752Z,9.3
2018-09-16T00:27:53.967Z,9.3
2018-09-16T00:29:01.180Z,9.3
2018-09-16T00:30:08.389Z,9.3
2018-09-16T00:31:15.597Z,9.3
2018-09-16T00:32:22.533Z,9.3
2018-09-16T00:33:29.740Z,9.2
2018-09-16T00:34:36.954Z,9.2
2018-09-16T00:35:44.167Z,9.2
2018-09-16T00:36:51.379Z,9.2
2018-09-16T00:37:58.588Z,9.2
2018-09-16T00:39:05.792Z,9.2
2018-09-16T00:40:13.004Z,9.2
2018-09-16T00:41:20.213Z,9.2
2018-09-16T00:42:27.445Z,9.1
2018-09-16T00:43:34.660Z,9.1
2018-09-16T00:44:41.863Z,9.1
2018-09-16T00:45:49.079Z,9.1
2018-09-16T00:46:56.024Z,9.1
2018-09-16T00:48:03.243Z,9.1
2018-09-16T00:49:09.932Z,9.1
2018-09-16T00:50:17.152Z,9.2
2018-09-16T00:51:24.354Z,9.1
2018-09-16T00:52:31.563Z,9.1
2018-09-16T00:53:38.507Z,9
2018-09-16T00:54:45.720Z,9
2018-09-16T00:55:52.653Z,9
2018-09-16T00:56:59.324Z,9
2018-09-16T00:58:06.533Z,9
2018-09-16T00:59:13.747Z,9
2018-09-16T01:00:20.682Z,9
2018-09-16T01:01:27.898Z,8.9
2018-09-16T01:02:35.149Z,8.9
2018-09-16T01:03:42.316Z,8.9
2018-09-16T01:04:49.515Z,8.9
2018-09-16T01:05:56.722Z,8.9
2018-09-16T01:07:03.946Z,8.9
2018-09-16T01:08:11.159Z,8.8
2018-09-16T01:09:18.371Z,8.8
2018-09-16T01:10:25.583Z,8.8
2018-09-16T01:11:32.799Z,8.8
2018-09-16T01:12:40.001Z,8.8
2018-09-16T01:13:47.220Z,8.8
2018-09-16T01:14:54.425Z,8.8
2018-09-16T01:16:01.631Z,8.9
2018-09-16T01:17:08.842Z,8.8
2018-09-16T01:18:16.053Z,8.7
2018-09-16T01:19:23.263Z,8.7
2018-09-16T01:20:30.473Z,8.7
2018-09-16T01:21:37.689Z,8.7
2018-09-16T01:22:44.902Z,8.6
2018-09-16T01:23:52.120Z,8.6
2018-09-16T01:24:59.335Z,8.7
2018-09-16T01:26:06.543Z,8.7
2018-09-16T01:27:13.764Z,8.7
2018-09-16T01:28:20.986Z,8.7
2018-09-16T01:29:28.204Z,8.6
2018-09-16T01:30:35.412Z,8.5
2018-09-16T01:31:42.623Z,8.5
2018-09-16T01:32:49.834Z,8.5
2018-09-16T01:33:57.042Z,8.4
2018-09-16T01:35:04.264Z,8.4
2018-09-16T01:36:11.469Z,8.4
2018-09-16T01:37:18.679Z,8.4
2018-09-16T01:38:25.615Z,8.4
2018-09-16T01:39:32.826Z,8.4
2018-09-16T01:40:40.033Z,8.4
2018-09-16T01:41:47.245Z,8.4
2018-09-16T01:42:54.459Z,8.4
2018-09-16T01:44:01.669Z,8.3
2018-09-16T01:45:08.884Z,8.3
2018-09-16T01:46:16.093Z,8.3
2018-09-16T01:47:23.298Z,8.4
2018-09-16T01:48:30.543Z,8.3
2018-09-16T01:49:37.478Z,8.3
2018-09-16T01:50:44.686Z,8.2
2018-09-16T01:51:51.892Z,8.2
2018-09-16T01:52:59.102Z,8.2
2018-09-16T01:54:06.309Z,8.3
2018-09-16T01:55:13.246Z,8.3
2018-09-16T01:56:20.465Z,8.3
2018-09-16T01:57:27.666Z,8.3
2018-09-16T01:58:34.879Z,8.3
2018-09-16T01:59:41.809Z,8.3
2018-09-16T02:00:49.023Z,8.3
2018-09-16T02:01:56.230Z,8.2
2018-09-16T02:03:03.440Z,8.2
2018-09-16T02:04:10.653Z,8.2
2018-09-16T02:05:17.863Z,8.2
2018-09-16T02:06:25.079Z,8.2
2018-09-16T02:07:32.299Z,8.2
2018-09-16T02:08:39.505Z,8.3
2018-09-16T02:09:46.711Z,8.3
2018-09-16T02:10:53.647Z,8.2
2018-09-16T02:12:00.892Z,8.2
2018-09-16T02:13:08.096Z,8.1
2018-09-16T02:14:15.306Z,8.1
2018-09-16T02:15:22.522Z,8.2
2018-09-16T02:16:29.772Z,8.1
2018-09-16T02:17:36.712Z,8.1
2018-09-16T02:18:43.646Z,8.1
2018-09-16T02:19:50.859Z,8.1
2018-09-16T02:20:58.069Z,8
2018-09-16T02:22:05.273Z,8.1
2018-09-16T02:23:12.480Z,8.1
2018-09-16T02:24:19.694Z,8
2018-09-16T02:25:26.907Z,8.1
2018-09-16T02:26:34.108Z,8
2018-09-16T02:27:41.317Z,8
2018-09-16T02:28:48.521Z,7.9
2018-09-16T02:29:55.735Z,8
2018-09-16T02:31:02.940Z,7.9
2018-09-16T02:32:10.150Z,7.9
2018-09-16T02:33:17.356Z,7.8
2018-09-16T02:34:24.573Z,7.8
2018-09-16T02:35:31.785Z,7.8
2018-09-16T02:36:38.997Z,7.9
2018-09-16T02:37:46.207Z,7.9
2018-09-16T02:38:53.414Z,7.8
2018-09-16T02:40:00.623Z,7.8
2018-09-16T02:41:07.833Z,7.8
2018-09-16T02:42:15.038Z,7.8
2018-09-16T02:43:22.418Z,7.8
2018-09-16T02:44:29.546Z,7.8
2018-09-16T02:45:36.757Z,7.8
2018-09-16T02:46:43.769Z,7.8
2018-09-16T02:47:50.978Z,7.8
2018-09-16T02:48:58.197Z,7.8
2018-09-16T02:50:05.404Z,7.9
2018-09-16T02:51:12.615Z,7.8
2018-09-16T02:52:19.823Z,7.8
2018-09-16T02:53:27.051Z,7.8
2018-09-16T02:54:34.255Z,7.7
2018-09-16T02:55:41.472Z,7.7
2018-09-16T02:56:48.685Z,7.7
2018-09-16T02:57:55.895Z,7.7
2018-09-16T02:59:03.105Z,7.7
2018-09-16T03:00:10.310Z,7.7
2018-09-16T03:01:17.247Z,7.7
2018-09-16T03:02:24.178Z,7.7
2018-09-16T03:03:31.386Z,7.7
2018-09-16T03:04:53.247Z,7.7
2018-09-16T03:06:00.456Z,7.6
2018-09-16T03:07:07.395Z,7.6
2018-09-16T03:08:14.597Z,7.6
2018-09-16T03:09:21.804Z,7.6
2018-09-16T03:10:29.013Z,7.7
2018-09-16T03:11:36.373Z,7.7
2018-09-16T03:12:43.879Z,7.8
2018-09-16T03:13:51.084Z,7.8
2018-09-16T03:14:58.288Z,7.9
2018-09-16T03:16:05.225Z,8
2018-09-16T03:17:12.160Z,8
2018-09-16T03:18:19.096Z,8
2018-09-16T03:19:26.296Z,8.1
2018-09-16T03:20:33.499Z,8
2018-09-16T03:21:40.705Z,8.1
2018-09-16T03:22:47.635Z,8.1
2018-09-16T03:23:54.843Z,8
2018-09-16T03:25:02.053Z,8
2018-09-16T03:26:08.990Z,8
2018-09-16T03:27:15.926Z,8
2018-09-16T03:28:23.139Z,8
2018-09-16T03:29:30.350Z,8
2018-09-16T03:30:37.285Z,8
2018-09-16T03:31:44.551Z,8
2018-09-16T03:32:51.754Z,8
2018-09-16T03:33:58.974Z,8
2018-09-16T03:35:06.172Z,8
2018-09-16T03:36:13.381Z,8
2018-09-16T03:37:20.589Z,8
2018-09-16T03:38:27.802Z,8
2018-09-16T03:39:35.009Z,8
2018-09-16T03:40:42.213Z,8
2018-09-16T03:41:49.421Z,7.9
2018-09-16T03:42:56.649Z,7.9
2018-09-16T03:44:03.855Z,8
2018-09-16T03:45:11.065Z,8
2018-09-16T03:46:18.271Z,8
2018-09-16T03:47:25.482Z,8
2018-09-16T03:48:32.693Z,8
2018-09-16T03:49:39.903Z,8
2018-09-16T03:50:47.349Z,8
2018-09-16T03:51:54.715Z,8
2018-09-16T03:53:01.922Z,7.9
2018-09-16T03:54:09.128Z,8
2018-09-16T03:55:16.341Z,8
2018-09-16T03:56:23.547Z,8
2018-09-16T03:57:30.750Z,8
2018-09-16T03:58:37.959Z,8
2018-09-16T03:59:45.166Z,8
2018-09-16T04:00:52.373Z,8
2018-09-16T04:01:59.306Z,8
2018-09-16T04:03:06.520Z,7.9
2018-09-16T04:04:13.735Z,7.9
2018-09-16T04:05:20.934Z,7.9
2018-09-16T04:06:28.143Z,7.9
2018-09-16T04:07:35.356Z,7.9
2018-09-16T04:08:42.284Z,7.9
2018-09-16T04:09:49.494Z,7.9
2018-09-16T04:10:56.702Z,7.9
2018-09-16T04:12:03.906Z,7.9
2018-09-16T04:13:11.120Z,7.8
2018-09-16T04:14:18.369Z,7.9
2018-09-16T04:15:25.581Z,7.9
2018-09-16T04:16:32.789Z,7.9
2018-09-16T04:17:39.997Z,7.9
2018-09-16T04:18:47.262Z,7.8
2018-09-16T04:19:54.471Z,7.9
2018-09-16T04:21:01.840Z,7.9
2018-09-16T04:22:09.286Z,7.9
2018-09-16T04:23:16.494Z,7.9
2018-09-16T04:24:23.701Z,7.8
2018-09-16T04:25:30.636Z,7.8
2018-09-16T04:26:37.844Z,7.8
2018-09-16T04:27:45.055Z,7.8
2018-09-16T04:28:52.266Z,7.8
2018-09-16T04:29:59.473Z,7.8
2018-09-16T04:31:06.676Z,7.7
2018-09-16T04:32:13.895Z,7.7
2018-09-16T04:33:21.185Z,7.7
2018-09-16T04:34:28.483Z,7.7
2018-09-16T04:35:35.685Z,7.7
2018-09-16T04:36:42.899Z,7.6
2018-09-16T04:37:49.837Z,7.6
2018-09-16T04:38:57.045Z,7.6
2018-09-16T04:40:04.248Z,7.6
2018-09-16T04:41:11.492Z,7.5
2018-09-16T04:42:18.680Z,7.6
2018-09-16T04:43:25.888Z,7.5
2018-09-16T04:44:32.821Z,7.5
2018-09-16T04:45:40.038Z,7.5
2018-09-16T04:46:47.251Z,7.5
2018-09-16T04:47:54.458Z,7.5
2018-09-16T04:49:01.668Z,7.5
2018-09-16T04:50:08.608Z,7.5
2018-09-16T04:51:15.814Z,7.5
2018-09-16T04:52:23.021Z,7.5
2018-09-16T04:53:30.226Z,7.4
2018-09-16T04:54:37.437Z,7.4
2018-09-16T04:55:44.639Z,7.4
2018-09-16T04:56:51.847Z,7.4
2018-09-16T04:57:58.778Z,7.4
2018-09-16T04:59:05.990Z,7.4
2018-09-16T05:00:13.201Z,7.4
2018-09-16T05:01:20.411Z,7.3
2018-09-16T05:02:27.615Z,7.3
2018-09-16T05:03:34.841Z,7.3
2018-09-16T05:04:42.052Z,7.3
2018-09-16T05:05:49.260Z,7.3
2018-09-16T05:06:56.466Z,7.3
2018-09-16T05:08:03.670Z,7.3
2018-09-16T05:09:10.882Z,7.3
2018-09-16T05:10:18.116Z,7.3
2018-09-16T05:11:25.321Z,7.3
2018-09-16T05:12:32.529Z,7.3
2018-09-16T05:13:39.461Z,7.3
2018-09-16T05:14:46.663Z,7.3
2018-09-16T05:15:53.877Z,7.3
2018-09-16T05:17:01.086Z,7.3
2018-09-16T05:18:08.294Z,7.3
2018-09-16T05:19:15.501Z,7.4
2018-09-16T05:20:22.710Z,7.3
2018-09-16T05:21:29.916Z,7.3
2018-09-16T05:22:37.229Z,7.3
2018-09-16T05:23:44.668Z,7.3
2018-09-16T05:24:51.880Z,7.4
2018-09-16T05:25:59.086Z,7.4
2018-09-16T05:27:06.303Z,7.3
2018-09-16T05:28:13.503Z,7.4
2018-09-16T05:29:20.712Z,7.4
2018-09-16T05:30:27.641Z,7.4
2018-09-16T05:31:34.851Z,7.5
2018-09-16T05:32:42.062Z,7.5
2018-09-16T05:33:49.269Z,7.4
2018-09-16T05:34:56.485Z,7.4
2018-09-16T05:36:03.698Z,7.4
2018-09-16T05:37:10.902Z,7.5
2018-09-16T05:38:18.105Z,7.5
2018-09-16T05:39:25.045Z,7.5
2018-09-16T05:40:32.247Z,7.6
2018-09-16T05:41:39.459Z,7.6
2018-09-16T05:42:46.114Z,7.5
2018-09-16T05:43:53.324Z,7.6
2018-09-16T05:45:00.532Z,7.6
2018-09-16T05:46:07.499Z,7.7
2018-09-16T05:47:14.710Z,7.7
2018-09-16T05:48:21.909Z,7.7
2018-09-16T05:49:29.121Z,7.7
2018-09-16T05:50:36.050Z,7.8
2018-09-16T05:51:43.262Z,7.7
2018-09-16T05:52:50.794Z,7.8
2018-09-16T05:53:58.331Z,7.8
2018-09-16T05:55:05.545Z,7.8
2018-09-16T05:56:12.751Z,7.8
2018-09-16T05:57:19.962Z,7.8
2018-09-16T05:58:27.171Z,7.8
2018-09-16T05:59:34.599Z,7.9
2018-09-16T06:00:41.537Z,7.9
2018-09-16T06:01:48.751Z,8
2018-09-16T06:02:55.957Z,8
2018-09-16T06:04:03.164Z,8.1
2018-09-16T06:05:10.552Z,8.1
2018-09-16T06:06:18.173Z,8.2
2018-09-16T06:07:25.381Z,8.3
2018-09-16T06:08:32.589Z,8.3
2018-09-16T06:09:39.806Z,8.4
2018-09-16T06:10:47.164Z,8.5
2018-09-16T06:11:54.184Z,8.5
2018-09-16T06:13:01.399Z,8.6
2018-09-16T06:14:08.611Z,8.7
2018-09-16T06:15:15.544Z,8.8
2018-09-16T06:16:22.756Z,8.9
2018-09-16T06:17:29.684Z,9
2018-09-16T06:18:36.895Z,9.1
2018-09-16T06:19:43.828Z,9.2
2018-09-16T06:20:50.764Z,9.3
2018-09-16T06:21:57.973Z,9.4
2018-09-16T06:23:05.199Z,9.5
2018-09-16T06:24:12.416Z,9.7
2018-09-16T06:25:19.656Z,9.8
2018-09-16T06:26:26.859Z,9.9
2018-09-16T06:27:34.071Z,10.2
2018-09-16T06:28:41.281Z,10.3
2018-09-16T06:29:48.509Z,10.4
2018-09-16T06:30:55.745Z,10.6
2018-09-16T06:32:02.685Z,10.7
2018-09-16T06:33:09.895Z,10.7
2018-09-16T06:34:17.104Z,10.7
2018-09-16T06:35:24.324Z,10.8
2018-09-16T06:36:31.536Z,10.9
2018-09-16T06:37:38.749Z,11.1
2018-09-16T06:38:45.965Z,11.2
2018-09-16T06:39:53.171Z,11.4
2018-09-16T06:41:00.381Z,11.6
2018-09-16T06:42:07.597Z,11.7
2018-09-16T06:43:14.805Z,11.8
2018-09-16T06:44:22.016Z,11.9
2018-09-16T06:45:28.676Z,11.9
2018-09-16T06:46:35.872Z,11.9
2018-09-16T06:47:43.085Z,11.9
2018-09-16T06:48:50.302Z,12
2018-09-16T06:49:57.244Z,12.1
2018-09-16T06:51:04.630Z,12.3
2018-09-16T06:52:12.348Z,12.4
2018-09-16T06:53:19.562Z,12.6
2018-09-16T06:54:26.799Z,12.7
2018-09-16T06:55:34.032Z,12.7
2018-09-16T06:56:41.252Z,12.8
2018-09-16T06:57:48.466Z,12.7
2018-09-16T06:58:55.405Z,12.8
2018-09-16T07:00:02.615Z,13
2018-09-16T07:01:09.824Z,13
2018-09-16T07:02:17.039Z,13.1
2018-09-16T07:03:24.245Z,13.1
2018-09-16T07:04:31.186Z,13.1
2018-09-16T07:05:38.115Z,13.2
2018-09-16T07:06:45.320Z,13.2
2018-09-16T07:07:52.540Z,13.3
2018-09-16T07:08:59.750Z,13.4
2018-09-16T07:10:06.966Z,13.4
2018-09-16T07:11:14.182Z,13.5
2018-09-16T07:12:21.403Z,13.6
2018-09-16T07:13:28.609Z,13.6
2018-09-16T07:14:36.032Z,13.8
2018-09-16T07:15:43.407Z,13.9
2018-09-16T07:16:50.626Z,14
2018-09-16T07:17:57.841Z,14.2
2018-09-16T07:19:05.261Z,14.4
2018-09-16T07:20:12.490Z,14.5
2018-09-16T07:21:19.908Z,14.5
2018-09-16T07:22:27.123Z,14.5
2018-09-16T07:23:34.340Z,14.4
2018-09-16T07:24:41.556Z,14.4
2018-09-16T07:25:48.771Z,14.4
2018-09-16T07:26:56.157Z,14.4
2018-09-16T07:28:03.780Z,14.5
2018-09-16T07:29:10.992Z,14.5
2018-09-16T07:30:17.937Z,14.7
2018-09-16T07:31:25.153Z,14.8
2018-09-16T07:32:32.360Z,15
2018-09-16T07:33:39.682Z,15
2018-09-16T07:34:47.042Z,15.1
2018-09-16T07:35:54.256Z,15
2018-09-16T07:37:01.473Z,15.1
2018-09-16T07:38:08.689Z,15.3
2018-09-16T07:39:15.914Z,15.4
2018-09-16T07:40:23.125Z,15.7
2018-09-16T07:41:30.333Z,15.8
2018-09-16T07:42:37.547Z,16
2018-09-16T07:43:44.776Z,16.2
2018-09-16T07:44:51.985Z,16.4
2018-09-16T07:45:58.923Z,16.5
2018-09-16T07:47:06.132Z,16.4
2018-09-16T07:48:13.342Z,16.4
2018-09-16T07:49:20.565Z,16.6
2018-09-16T07:50:27.493Z,16.9
2018-09-16T07:51:34.709Z,17.1
2018-09-16T07:52:41.984Z,17.4
2018-09-16T07:53:49.238Z,17.6
2018-09-16T07:54:56.448Z,17.6
2018-09-16T07:56:03.667Z,17.4
2018-09-16T07:57:10.891Z,17.5
2018-09-16T07:58:18.113Z,17.7
2018-09-16T07:59:25.329Z,17.8
2018-09-16T08:00:32.645Z,18.2
2018-09-16T08:01:39.887Z,18.4
2018-09-16T08:02:47.099Z,18.3
2018-09-16T08:03:54.308Z,18.3
2018-09-16T08:05:01.523Z,18.5
2018-09-16T08:06:08.905Z,18.5
2018-09-16T08:07:16.417Z,18.5
2018-09-16T08:08:23.360Z,18.5
2018-09-16T08:09:30.568Z,18.7
2018-09-16T08:10:37.507Z,18.9
2018-09-16T08:11:44.440Z,19.1
2018-09-16T08:12:51.659Z,19.3
2018-09-16T08:13:58.901Z,19.4
2018-09-16T08:15:06.153Z,19.5
2018-09-16T08:16:13.362Z,19.6
2018-09-16T08:17:20.581Z,19.8
2018-09-16T08:18:27.792Z,19.9
2018-09-16T08:19:35.018Z,19.9
2018-09-16T08:20:42.226Z,19.9
2018-09-16T08:21:49.440Z,20
2018-09-16T08:22:56.647Z,20
2018-09-16T08:24:03.867Z,20
2018-09-16T08:25:11.077Z,20
2018-09-16T08:26:18.295Z,20.1
2018-09-16T08:27:25.510Z,20
2018-09-16T08:28:32.793Z,19.7
2018-09-16T08:29:40.492Z,19.6
2018-09-16T08:30:47.706Z,19.7
2018-09-16T08:31:54.647Z,19.8
2018-09-16T08:33:01.601Z,20.1
2018-09-16T08:34:08.814Z,20.3
2018-09-16T08:35:16.034Z,20.6
2018-09-16T08:36:23.247Z,20.6
2018-09-16T08:37:30.489Z,20.6
2018-09-16T08:38:37.437Z,20.6
2018-09-16T08:39:44.662Z,20.7
2018-09-16T08:40:51.880Z,20.8
2018-09-16T08:41:59.103Z,20.8
2018-09-16T08:43:06.318Z,20.8
2018-09-16T08:44:13.541Z,20.7
2018-09-16T08:45:20.757Z,20.3
2018-09-16T08:46:27.974Z,20.3
2018-09-16T08:47:35.197Z,20.4
2018-09-16T08:48:42.412Z,20.6
2018-09-16T08:49:49.628Z,20.5
2018-09-16T08:50:56.844Z,20.7
2018-09-16T08:52:04.116Z,20.9
2018-09-16T08:53:11.411Z,21.1
2018-09-16T08:54:18.628Z,21.3
2018-09-16T08:55:25.853Z,21.5
2018-09-16T08:56:33.118Z,21.6
2018-09-16T08:57:40.325Z,21.6
2018-09-16T08:58:47.541Z,21.6
2018-09-16T08:59:54.480Z,21.8
2018-09-16T09:01:01.428Z,21.8
2018-09-16T09:02:08.647Z,21.6
2018-09-16T09:03:15.871Z,21.5
2018-09-16T09:04:23.253Z,21.4
2018-09-16T09:05:30.642Z,21.2
2018-09-16T09:06:37.867Z,21.3
2018-09-16T09:07:44.541Z,21.4
2018-09-16T09:08:51.760Z,21.5
2018-09-16T09:09:59.011Z,21.6
2018-09-16T09:11:05.950Z,21.8
2018-09-16T09:12:13.168Z,21.9
2018-09-16T09:13:20.111Z,22
2018-09-16T09:14:27.214Z,21.8
2018-09-16T09:15:34.690Z,21.8
2018-09-16T09:16:41.661Z,21.9
2018-09-16T09:17:48.593Z,21.9
2018-09-16T09:18:55.816Z,21.9
2018-09-16T09:20:03.040Z,21.8
2018-09-16T09:21:10.254Z,21.7
2018-09-16T09:22:17.479Z,21.5
2018-09-16T09:23:24.865Z,21.4
2018-09-16T09:24:32.339Z,21.5
2018-09-16T09:25:39.563Z,21.5
2018-09-16T09:26:46.777Z,21.1
2018-09-16T09:27:53.998Z,21.1
2018-09-16T09:29:01.345Z,21.3
2018-09-16T09:30:08.748Z,21.4
2018-09-16T09:31:15.969Z,21.3
2018-09-16T09:32:23.192Z,21.3
2018-09-16T09:33:30.133Z,21.5
2018-09-16T09:34:37.378Z,21.6
2018-09-16T09:35:44.780Z,21.9
2018-09-16T09:36:52.172Z,21.9
2018-09-16T09:37:59.413Z,22
2018-09-16T09:39:06.690Z,22.3
2018-09-16T09:40:13.640Z,22.3
2018-09-16T09:41:20.860Z,22.4
2018-09-16T09:42:28.081Z,22.3
2018-09-16T09:43:35.318Z,22.2
2018-09-16T09:44:42.550Z,22.3
2018-09-16T09:45:49.779Z,22.3
2018-09-16T09:46:57.017Z,22.5
2018-09-16T09:48:04.240Z,22.2
2018-09-16T09:49:26.106Z,22
2018-09-16T09:50:33.338Z,22.3
2018-09-16T09:51:40.558Z,22.7
2018-09-16T09:52:47.776Z,23
2018-09-16T09:53:55.004Z,23.2
2018-09-16T09:55:01.957Z,23.2
2018-09-16T09:56:09.186Z,23.1
2018-09-16T09:57:16.410Z,23.2
2018-09-16T09:58:23.635Z,23.3
2018-09-16T09:59:30.859Z,23.1
2018-09-16T10:00:38.082Z,22.9
2018-09-16T10:01:45.027Z,22.9
2018-09-16T10:02:52.284Z,23.1
2018-09-16T10:03:59.234Z,23.4
2018-09-16T10:05:06.457Z,23.4
2018-09-16T10:06:13.879Z,23.4
2018-09-16T10:07:21.414Z,23.3
2018-09-16T10:08:28.372Z,23.3
2018-09-16T10:09:35.602Z,23.3
2018-09-16T10:10:42.819Z,23.3
2018-09-16T10:11:50.044Z,23.2
2018-09-16T10:12:57.271Z,23.2
2018-09-16T10:14:04.507Z,23.3
2018-09-16T10:15:11.728Z,23.2
2018-09-16T10:16:18.949Z,23.1
2018-09-16T10:17:25.626Z,23.4
2018-09-16T10:18:32.882Z,23.6
2018-09-16T10:19:40.107Z,23.7
2018-09-16T10:20:47.323Z,23.9
2018-09-16T10:21:54.270Z,23.8
2018-09-16T10:23:01.494Z,23.8
2018-09-16T10:24:08.903Z,23.9
2018-09-16T10:25:16.241Z,23.7
2018-09-16T10:26:23.464Z,23.8
2018-09-16T10:27:30.684Z,23.8
2018-09-16T10:28:37.906Z,23.4
2018-09-16T10:29:45.139Z,23.3
2018-09-16T10:30:52.355Z,23.2
2018-09-16T10:31:59.305Z,23.3
2018-09-16T10:33:06.528Z,23.2
2018-09-16T10:34:13.745Z,23.3
2018-09-16T10:35:20.967Z,23.5
2018-09-16T10:36:28.198Z,23.6
2018-09-16T10:37:35.425Z,23.7
2018-09-16T10:38:42.689Z,23.8
2018-09-16T10:39:50.025Z,23.9
2018-09-16T10:40:56.987Z,24.2
2018-09-16T10:42:04.215Z,24.4
2018-09-16T10:43:11.432Z,24.5
2018-09-16T10:44:18.660Z,24.6
2018-09-16T10:45:25.882Z,24.7
2018-09-16T10:46:33.107Z,24.4
2018-09-16T10:47:40.333Z,24.1
2018-09-16T10:49:02.231Z,24.2
2018-09-16T10:50:09.176Z,24.2
2018-09-16T10:51:16.399Z,23.9
2018-09-16T10:52:23.631Z,24.1
2018-09-16T10:53:30.577Z,24.5
2018-09-16T10:54:37.796Z,24.8
2018-09-16T10:55:45.022Z,25
2018-09-16T10:56:52.252Z,25
2018-09-16T10:57:59.199Z,24.9
2018-09-16T10:59:06.429Z,24.9
2018-09-16T11:00:13.654Z,24.5
2018-09-16T11:01:20.887Z,24.5
2018-09-16T11:02:28.126Z,24.5
2018-09-16T11:03:35.350Z,24.3
2018-09-16T11:04:42.293Z,24.3
2018-09-16T11:05:49.242Z,24.2
2018-09-16T11:06:56.470Z,24.5
2018-09-16T11:08:03.942Z,24.6
2018-09-16T11:09:11.211Z,24.9
2018-09-16T11:10:18.434Z,25
2018-09-16T11:11:25.657Z,25.3
2018-09-16T11:12:32.889Z,25.5
2018-09-16T11:13:40.125Z,25.5
2018-09-16T11:14:47.356Z,25.4
2018-09-16T11:15:54.437Z,25.3
2018-09-16T11:17:01.940Z,24.6
2018-09-16T11:18:09.156Z,24.6
2018-09-16T11:19:16.377Z,24.7
2018-09-16T11:20:23.615Z,24.9
2018-09-16T11:21:30.839Z,25.1
2018-09-16T11:22:38.070Z,25.2
2018-09-16T11:23:45.019Z,25.6
2018-09-16T11:24:52.245Z,25.5
2018-09-16T11:25:59.687Z,25.1
2018-09-16T11:27:06.911Z,24.8
2018-09-16T11:28:14.140Z,25
2018-09-16T11:29:21.370Z,25.2
2018-09-16T11:30:28.596Z,25.3
2018-09-16T11:31:35.817Z,25.1
2018-09-16T11:32:43.041Z,25.2
2018-09-16T11:33:50.259Z,25.3
2018-09-16T11:34:57.489Z,25.5
2018-09-16T11:36:04.718Z,25.4
2018-09-16T11:37:11.948Z,25.5
2018-09-16T11:38:19.178Z,25.4
2018-09-16T11:39:26.402Z,25.4
2018-09-16T11:40:33.633Z,25.8
2018-09-16T11:41:40.865Z,25.6
2018-09-16T11:42:48.092Z,25.5
2018-09-16T11:43:55.316Z,25.5
2018-09-16T11:45:02.268Z,25.3
2018-09-16T11:46:09.490Z,25.4
2018-09-16T11:47:16.441Z,25.6
2018-09-16T11:48:23.666Z,25.8
2018-09-16T11:49:30.895Z,26.1
2018-09-16T11:50:37.848Z,26.3
2018-09-16T11:51:45.385Z,26.6
2018-09-16T11:52:52.465Z,26.6
2018-09-16T11:53:59.405Z,26.8
2018-09-16T11:55:06.354Z,27.1
2018-09-16T11:56:13.575Z,27.2
2018-09-16T11:57:20.804Z,27.2
2018-09-16T11:58:28.031Z,27.4
2018-09-16T11:59:34.986Z,27.6
2018-09-16T12:00:42.196Z,27.4
2018-09-16T12:01:49.180Z,27.3
2018-09-16T12:02:56.423Z,27.1
2018-09-16T12:04:03.655Z,27.2
2018-09-16T12:05:10.924Z,27.3
2018-09-16T12:06:17.913Z,27.4
2018-09-16T12:07:25.139Z,27.6
2018-09-16T12:08:32.092Z,27.5
2018-09-16T12:09:39.315Z,27.5
2018-09-16T12:10:46.545Z,27.7
2018-09-16T12:11:53.770Z,27.9
2018-09-16T12:13:00.988Z,28.1
2018-09-16T12:14:08.214Z,27.5
2018-09-16T12:15:15.489Z,26.7
2018-09-16T12:16:22.717Z,26.8
2018-09-16T12:17:29.937Z,27
2018-09-16T12:18:37.173Z,27.3
2018-09-16T12:19:44.391Z,27.4
2018-09-16T12:20:51.612Z,27.4
2018-09-16T12:21:58.834Z,27.4
2018-09-16T12:23:06.059Z,27.4
2018-09-16T12:24:13.278Z,27.3
2018-09-16T12:25:20.497Z,27.1
2018-09-16T12:26:27.715Z,27
2018-09-16T12:27:34.939Z,27
2018-09-16T12:28:42.164Z,27.1
2018-09-16T12:29:49.388Z,27.2
2018-09-16T12:30:57.069Z,27.2
2018-09-16T12:32:04.557Z,27.3
2018-09-16T12:33:11.776Z,27.3
2018-09-16T12:34:19.012Z,27.4
2018-09-16T12:35:25.979Z,27.3
2018-09-16T12:36:33.207Z,27.3
2018-09-16T12:37:40.431Z,27.2
2018-09-16T12:38:47.655Z,27.4
2018-09-16T12:39:54.604Z,27.5
2018-09-16T12:41:01.819Z,27.1
2018-09-16T12:42:08.774Z,27
2018-09-16T12:43:15.724Z,27
2018-09-16T12:44:22.953Z,27.2
2018-09-16T12:45:30.173Z,27.3
2018-09-16T12:46:37.405Z,27.4
2018-09-16T12:47:44.569Z,27.7
2018-09-16T12:48:51.791Z,27.9
2018-09-16T12:49:59.018Z,27.9
2018-09-16T12:51:05.971Z,27.5
2018-09-16T12:52:13.198Z,27
2018-09-16T12:53:20.417Z,27.1
2018-09-16T12:54:27.639Z,27.4
2018-09-16T12:55:34.950Z,27.8
2018-09-16T12:56:42.172Z,28.2
2018-09-16T12:57:49.393Z,28.3
2018-09-16T12:58:56.656Z,28.7
2018-09-16T13:00:03.878Z,28.8
2018-09-16T13:01:11.097Z,28.7
2018-09-16T13:02:18.318Z,28.6
2018-09-16T13:03:25.540Z,28.4
2018-09-16T13:04:33.011Z,28.4
2018-09-16T13:05:40.475Z,28.3
2018-09-16T13:06:47.703Z,28.3
2018-09-16T13:07:54.912Z,28
2018-09-16T13:09:02.140Z,27.9
2018-09-16T13:10:09.367Z,27.7
2018-09-16T13:11:16.582Z,27.9
2018-09-16T13:12:23.804Z,28
2018-09-16T13:13:31.053Z,28.2
2018-09-16T13:14:38.047Z,28.3
2018-09-16T13:15:45.269Z,28.4
2018-09-16T13:16:52.487Z,28.4
2018-09-16T13:17:59.704Z,28.4
2018-09-16T13:19:06.933Z,28.5
2018-09-16T13:20:14.158Z,28.4
2018-09-16T13:21:21.382Z,28.2
2018-09-16T13:22:28.602Z,28.1
2018-09-16T13:23:35.820Z,28.4
2018-09-16T13:24:43.047Z,28.7
2018-09-16T13:25:50.272Z,28.7
2018-09-16T13:26:57.496Z,28.9
2018-09-16T13:28:04.716Z,29
2018-09-16T13:29:11.942Z,29.1
2018-09-16T13:30:19.201Z,29
2018-09-16T13:31:26.429Z,29.1
2018-09-16T13:32:33.642Z,29.1
2018-09-16T13:33:40.581Z,29.2
2018-09-16T13:34:47.535Z,29.3
2018-09-16T13:35:54.750Z,29.5
2018-09-16T13:37:01.970Z,29.4
2018-09-16T13:38:09.267Z,29.4
2018-09-16T13:39:16.222Z,29.2
2018-09-16T13:40:23.442Z,29.2
2018-09-16T13:41:30.401Z,29
2018-09-16T13:42:37.623Z,28.7
2018-09-16T13:43:44.846Z,28.4
2018-09-16T13:44:52.069Z,28.4
2018-09-16T13:45:59.288Z,28.4
2018-09-16T13:47:06.237Z,28.1
2018-09-16T13:48:13.179Z,28.3
2018-09-16T13:49:20.408Z,28.4
2018-09-16T13:50:27.632Z,28.7
2018-09-16T13:51:34.850Z,29.1
2018-09-16T13:52:42.073Z,29.1
2018-09-16T13:53:49.034Z,29.4
2018-09-16T13:54:55.978Z,29.6
2018-09-16T13:56:03.207Z,29.8
2018-09-16T13:57:10.486Z,29.9
2018-09-16T13:58:17.718Z,29.9
2018-09-16T13:59:24.669Z,29.7
2018-09-16T14:00:31.897Z,29.8
2018-09-16T14:01:39.117Z,29.9
2018-09-16T14:02:46.337Z,29.8
2018-09-16T14:03:53.555Z,29.8
2018-09-16T14:05:00.773Z,29.6
2018-09-16T14:06:07.990Z,29.6
2018-09-16T14:07:15.208Z,29.6
2018-09-16T14:08:22.434Z,29.6
2018-09-16T14:09:29.708Z,29.6
2018-09-16T14:10:37.033Z,29.4
2018-09-16T14:11:44.257Z,29.4
2018-09-16T14:12:51.209Z,29.1
2018-09-16T14:13:58.148Z,28.6
2018-09-16T14:15:05.370Z,28.8
2018-09-16T14:16:12.319Z,29
2018-09-16T14:17:19.275Z,29.3
2018-09-16T14:18:26.505Z,29.4
2018-09-16T14:19:33.725Z,29.6
2018-09-16T14:20:40.675Z,29.7
2018-09-16T14:21:47.910Z,29.9
2018-09-16T14:22:55.123Z,29.8
2018-09-16T14:24:02.066Z,29.8
2018-09-16T14:25:09.018Z,29.6
2018-09-16T14:26:16.238Z,29.7
2018-09-16T14:27:23.195Z,29.7
2018-09-16T14:28:30.414Z,29.8
2018-09-16T14:29:37.637Z,29.6
2018-09-16T14:30:44.853Z,29.6
2018-09-16T14:31:52.080Z,29.8
2018-09-16T14:32:59.300Z,29.8
2018-09-16T14:34:06.258Z,29.9
2018-09-16T14:35:13.229Z,29.7
2018-09-16T14:36:20.223Z,29.7
2018-09-16T14:37:27.447Z,29.6
2018-09-16T14:38:34.681Z,29.7
2018-09-16T14:39:41.636Z,29.9
2018-09-16T14:40:48.582Z,29.8
2018-09-16T14:41:55.829Z,29.7
2018-09-16T14:43:02.768Z,29.3
2018-09-16T14:44:09.987Z,29.1
2018-09-16T14:45:17.209Z,28.8
2018-09-16T14:46:24.435Z,28.8
2018-09-16T14:47:31.118Z,28.8
2018-09-16T14:48:38.364Z,29
2018-09-16T14:49:45.594Z,29.2
2018-09-16T14:50:52.255Z,28.9
2018-09-16T14:51:59.475Z,29
2018-09-16T14:53:06.701Z,28.9
2018-09-16T14:54:13.922Z,28.6
2018-09-16T14:55:21.145Z,28.1
2018-09-16T14:56:28.369Z,28.1
2018-09-16T14:57:35.604Z,27.8
2018-09-16T14:58:42.830Z,27.3
2018-09-16T14:59:49.780Z,27.1
2018-09-16T15:00:57.007Z,27.1
2018-09-16T15:02:03.949Z,27.2
2018-09-16T15:03:11.165Z,27.5
2018-09-16T15:04:18.386Z,27.8
2018-09-16T15:05:25.608Z,28
2018-09-16T15:06:32.819Z,28.1
2018-09-16T15:07:40.145Z,28.3
2018-09-16T15:08:47.548Z,28.6
2018-09-16T15:09:54.780Z,28.6
2018-09-16T15:11:01.995Z,28.6
2018-09-16T15:12:09.227Z,28.8
2018-09-16T15:13:16.638Z,28.6
2018-09-16T15:14:24.095Z,28.6